Billings, MT

4:08 AM MDT on August 29, 2014 (GMT -0600)
South of Castle Rock Park | Change Station
CLOSE
Current Station
Personal Weather Station
Location: Billings, MT
Elevation: 3297 ft
Nearby Weather Stations

Elev 3297 ft 45.82 °N, 108.50 °W | Updated 19 seconds ago

Overcast
Overcast
61.7 °F
Feels Like 61.7 °F
N
2.2
Wind Variable Wind from North
Gusts 3.8 mph

Today
High -- | Low -- °F
--% Chance of Precip.
Yesterday
High -- | Low -- °F
Precip. -- in
6:31 AM 7:57 PM
Waxing Crescent, 13% visible
Pressure 29.99 in
Visibility 10.0 miles
Clouds Scattered Clouds 1700 ft
Mostly Cloudy 2600 ft
Overcast 16000 ft
Dew Point 53 °F
Humidity 72%
Rainfall 0.00 in
Snow Depth Not available.
UV 0 out of 12
Pollen 8.80 out of 12
Air Quality Not available.
Flu Activity Not available.
METAR KBIL 290953Z 02011KT 10SM SCT017 BKN026 OVC160 16/12 A3009 RMK AO2 SLP155 T01560117

More Conditions Fewer Conditions

Pressure 29.99 in
Visibility 10.0 miles
Clouds Scattered Clouds 1700 ft
Mostly Cloudy 2600 ft
Overcast 16000 ft
Dew Point 53 °F
Humidity 72%
Rainfall 0.00 in
Snow Depth Not available.
UV 0 out of 12
Pollen 8.80 out of 12
Air Quality Not available.
Flu Activity Not available.
METAR KBIL 290953Z 02011KT 10SM SCT017 BKN026 OVC160 16/12 A3009 RMK AO2 SLP155 T01560117

More Conditions Fewer Conditions

10-Day Weather Forecast

Almanac

Astronomy

Aug. 29, 2014 Rise Set
Actual Time 6:31 AM MDT 7:57 PM MDT
Civil Twilight 6:00 AM MDT 8:28 PM MDT
Nautical Twilight 5:22 AM MDT 9:05 PM MDT
Astronomical Twilight 4:42 AM MDT 9:45 PM MDT
Moon 10:38 AM MDT 9:41 PM MDT
Length of Visible Light 14h 28m
Length of Day
13h 26m
Tomorrow will be 3m 4s shorter.
Waxing Crescent, 13% of the Moon is Illuminated
Today
Waxing Crescent
Sep 2
First Quarter
Sep 8
Full
Sep 15
Last Quarter
Sep 24
New

Today's Extremes

State Highs State Lows

Community

WunderPhotos

Upload Photos

1,748,209 photos uploaded!

Nearby

Snow Depth

Station Depth Elevation
Cole Creek 1 in 7850 ft
Burnt Mountain 0 in 5880 ft
Placer Basin 0 in 8830 ft
Crystal Lake 1 in 6050 ft
White Mill 2 in 8700 ft

Earthquake Activity

City Distance Mag. Time & Date
No recent earthquake activity has been reported nearby.
Minimum magnitude displayed is 2.5.

Coastal Water Temperatures

Place Temperature
No Stations Reporting

Nearby Weather Stations